TWT weather

Sanga Sanga Airport
Tawi-Tawi Province, Philippines

Public forecast

Using degrees Celsius for public forecast. Weather courtesy of forecast.io.

METAR (pilot weather report)

Closest report is Tawau Airport, 106.0 nm (196.4 km) WSW. Retrieved 2019/06/20 08:00 UTC (44 minutes ago):

WBKW 200800Z 13005KT 100V160 9999 FEW017 BKN140 29/25 Q1006

TAF (pilot weather forecast)

Closest forecast is Tawau Airport, 106.0 nm (196.4 km) WSW. Retrieved 2019/06/20 06:00 UTC (3 hours ago):

TAF WBKW 200500Z 2006/2106 35005KT 9999 FEW015 TEMPO 2006/2010 2000 +RA FEW014 FEW016CB SCT030